sensor_id;sensor_type;location;lat;lon;timestamp;P1;P2;P0
34240;PMS7003;20503;50.200;19.508;2022-12-18T00:04:51;10;1;0
34240;PMS7003;20503;50.200;19.508;2022-12-18T00:10:02;7;3;2
34240;PMS7003;20503;50.200;19.508;2022-12-18T00:15:13;4;0;0
34240;PMS7003;20503;50.200;19.508;2022-12-18T00:20:23;4;1;1
34240;PMS7003;20503;50.200;19.508;2022-12-18T00:27:09;3;3;1
34240;PMS7003;20503;50.200;19.508;2022-12-18T00:32:20;3;2;1
34240;PMS7003;20503;50.200;19.508;2022-12-18T00:37:33;7;4;3
34240;PMS7003;20503;50.200;19.508;2022-12-18T00:42:42;7;3;1
34240;PMS7003;20503;50.200;19.508;2022-12-18T00:47:56;5;2;2
34240;PMS7003;20503;50.200;19.508;2022-12-18T00:53:03;8;5;2
34240;PMS7003;20503;50.200;19.508;2022-12-18T00:58:15;6;1;0
34240;PMS7003;20503;50.200;19.508;2022-12-18T01:03:26;3;3;1
34240;PMS7003;20503;50.200;19.508;2022-12-18T01:08:36;4;2;1
34240;PMS7003;20503;50.200;19.508;2022-12-18T01:13:47;3;3;1
34240;PMS7003;20503;50.200;19.508;2022-12-18T01:18:58;8;3;2
34240;PMS7003;20503;50.200;19.508;2022-12-18T01:24:10;2;2;1
34240;PMS7003;20503;50.200;19.508;2022-12-18T01:29:20;5;3;1
34240;PMS7003;20503;50.200;19.508;2022-12-18T01:34:30;5;2;1
34240;PMS7003;20503;50.200;19.508;2022-12-18T01:39:41;2;1;1
34240;PMS7003;20503;50.200;19.508;2022-12-18T01:55:20;4;3;2
34240;PMS7003;20503;50.200;19.508;2022-12-18T02:00:26;6;2;1
34240;PMS7003;20503;50.200;19.508;2022-12-18T02:05:40;4;3;1
34240;PMS7003;20503;50.200;19.508;2022-12-18T02:21:28;8;2;1
34240;PMS7003;20503;50.200;19.508;2022-12-18T02:31:51;2;1;1
34240;PMS7003;20503;50.200;19.508;2022-12-18T02:36:54;5;1;1
34240;PMS7003;20503;50.200;19.508;2022-12-18T02:41:58;3;2;0
34240;PMS7003;20503;50.200;19.508;2022-12-18T02:47:08;3;2;1
34240;PMS7003;20503;50.200;19.508;2022-12-18T02:57:32;5;4;1
34240;PMS7003;20503;50.200;19.508;2022-12-18T03:02:38;3;1;0
34240;PMS7003;20503;50.200;19.508;2022-12-18T03:07:49;3;3;2
34240;PMS7003;20503;50.200;19.508;2022-12-18T03:12:59;5;2;1
34240;PMS7003;20503;50.200;19.508;2022-12-18T03:18:14;2;2;1
34240;PMS7003;20503;50.200;19.508;2022-12-18T03:23:24;3;3;2
34240;PMS7003;20503;50.200;19.508;2022-12-18T03:28:30;6;4;1
34240;PMS7003;20503;50.200;19.508;2022-12-18T03:33:42;6;1;1
34240;PMS7003;20503;50.200;19.508;2022-12-18T03:38:55;4;1;1
34240;PMS7003;20503;50.200;19.508;2022-12-18T03:49:18;2;1;0
34240;PMS7003;20503;50.200;19.508;2022-12-18T03:54:27;4;1;0
34240;PMS7003;20503;50.200;19.508;2022-12-18T03:59:32;4;3;2
34240;PMS7003;20503;50.200;19.508;2022-12-18T04:04:43;6;5;2
34240;PMS7003;20503;50.200;19.508;2022-12-18T04:09:55;13;3;2
34240;PMS7003;20503;50.200;19.508;2022-12-18T04:15:05;10;3;1
34240;PMS7003;20503;50.200;19.508;2022-12-18T04:20:15;7;3;1
34240;PMS7003;20503;50.200;19.508;2022-12-18T04:25:27;4;2;1
34240;PMS7003;20503;50.200;19.508;2022-12-18T04:30:37;4;3;2
34240;PMS7003;20503;50.200;19.508;2022-12-18T04:35:49;9;2;1
34240;PMS7003;20503;50.200;19.508;2022-12-18T04:40:58;5;3;2
34240;PMS7003;20503;50.200;19.508;2022-12-18T04:46:09;4;3;2
34240;PMS7003;20503;50.200;19.508;2022-12-18T04:51:20;8;3;2
34240;PMS7003;20503;50.200;19.508;2022-12-18T04:56:31;6;3;2
34240;PMS7003;20503;50.200;19.508;2022-12-18T05:01:41;8;6;3
34240;PMS7003;20503;50.200;19.508;2022-12-18T05:06:52;5;4;3
34240;PMS7003;20503;50.200;19.508;2022-12-18T05:12:04;5;3;2
34240;PMS7003;20503;50.200;19.508;2022-12-18T05:17:14;5;4;2
34240;PMS7003;20503;50.200;19.508;2022-12-18T05:22:25;10;6;4
34240;PMS7003;20503;50.200;19.508;2022-12-18T05:27:35;3;2;1
34240;PMS7003;20503;50.200;19.508;2022-12-18T05:32:46;6;3;1
34240;PMS7003;20503;50.200;19.508;2022-12-18T05:37:57;7;3;1
34240;PMS7003;20503;50.200;19.508;2022-12-18T05:43:08;5;2;1
34240;PMS7003;20503;50.200;19.508;2022-12-18T05:48:19;6;3;2
34240;PMS7003;20503;50.200;19.508;2022-12-18T05:53:29;10;4;2
34240;PMS7003;20503;50.200;19.508;2022-12-18T05:58:40;15;10;6
34240;PMS7003;20503;50.200;19.508;2022-12-18T06:03:51;11;7;4
34240;PMS7003;20503;50.200;19.508;2022-12-18T06:09:03;8;7;3
34240;PMS7003;20503;50.200;19.508;2022-12-18T06:14:13;11;7;5
34240;PMS7003;20503;50.200;19.508;2022-12-18T06:19:23;17;7;4
34240;PMS7003;20503;50.200;19.508;2022-12-18T06:24:34;8;6;3
34240;PMS7003;20503;50.200;19.508;2022-12-18T06:29:45;12;10;6
34240;PMS7003;20503;50.200;19.508;2022-12-18T06:34:56;11;7;3
34240;PMS7003;20503;50.200;19.508;2022-12-18T06:40:07;13;9;4
34240;PMS7003;20503;50.200;19.508;2022-12-18T06:45:18;8;6;4
34240;PMS7003;20503;50.200;19.508;2022-12-18T06:50:28;15;8;5
34240;PMS7003;20503;50.200;19.508;2022-12-18T06:55:39;10;7;3
34240;PMS7003;20503;50.200;19.508;2022-12-18T07:00:50;13;7;3
34240;PMS7003;20503;50.200;19.508;2022-12-18T07:06:01;10;5;2
34240;PMS7003;20503;50.200;19.508;2022-12-18T07:11:12;10;6;4
34240;PMS7003;20503;50.200;19.508;2022-12-18T07:16:23;3;1;0
34240;PMS7003;20503;50.200;19.508;2022-12-18T07:21:34;12;6;3
34240;PMS7003;20503;50.200;19.508;2022-12-18T07:26:48;6;4;3
34240;PMS7003;20503;50.200;19.508;2022-12-18T07:31:55;11;6;3
34240;PMS7003;20503;50.200;19.508;2022-12-18T07:37:05;6;6;3
34240;PMS7003;20503;50.200;19.508;2022-12-18T07:42:17;6;5;3
34240;PMS7003;20503;50.200;19.508;2022-12-18T07:47:33;8;6;3
34240;PMS7003;20503;50.200;19.508;2022-12-18T07:52:38;14;7;4
34240;PMS7003;20503;50.200;19.508;2022-12-18T07:57:50;10;7;4
34240;PMS7003;20503;50.200;19.508;2022-12-18T08:02:59;5;5;4
34240;PMS7003;20503;50.200;19.508;2022-12-18T08:08:10;8;4;2
34240;PMS7003;20503;50.200;19.508;2022-12-18T08:13:21;9;8;4
34240;PMS7003;20503;50.200;19.508;2022-12-18T08:18:32;15;5;3
34240;PMS7003;20503;50.200;19.508;2022-12-18T08:23:42;16;8;4
34240;PMS7003;20503;50.200;19.508;2022-12-18T08:28:58;14;10;6
34240;PMS7003;20503;50.200;19.508;2022-12-18T08:34:04;10;6;3
34240;PMS7003;20503;50.200;19.508;2022-12-18T08:39:16;11;6;3
34240;PMS7003;20503;50.200;19.508;2022-12-18T08:44:26;7;4;2
34240;PMS7003;20503;50.200;19.508;2022-12-18T08:49:41;11;4;2
34240;PMS7003;20503;50.200;19.508;2022-12-18T08:54:47;16;8;4
34240;PMS7003;20503;50.200;19.508;2022-12-18T08:59:59;13;8;5
34240;PMS7003;20503;50.200;19.508;2022-12-18T09:05:09;9;6;4
34240;PMS7003;20503;50.200;19.508;2022-12-18T09:10:20;12;6;2
34240;PMS7003;20503;50.200;19.508;2022-12-18T09:15:31;6;4;1
34240;PMS7003;20503;50.200;19.508;2022-12-18T09:20:41;10;6;2
34240;PMS7003;20503;50.200;19.508;2022-12-18T09:25:52;7;6;3
34240;PMS7003;20503;50.200;19.508;2022-12-18T09:31:04;8;4;3
34240;PMS7003;20503;50.200;19.508;2022-12-18T09:36:15;2;2;1
34240;PMS7003;20503;50.200;19.508;2022-12-18T09:41:30;7;3;2
34240;PMS7003;20503;50.200;19.508;2022-12-18T09:46:40;4;4;3
34240;PMS7003;20503;50.200;19.508;2022-12-18T09:51:51;7;4;2
34240;PMS7003;20503;50.200;19.508;2022-12-18T09:56:59;10;4;3
34240;PMS7003;20503;50.200;19.508;2022-12-18T10:02:12;5;5;1
34240;PMS7003;20503;50.200;19.508;2022-12-18T10:07:24;6;3;2
34240;PMS7003;20503;50.200;19.508;2022-12-18T10:17:51;11;3;1
34240;PMS7003;20503;50.200;19.508;2022-12-18T10:28:16;10;7;4
34240;PMS7003;20503;50.200;19.508;2022-12-18T10:33:21;6;5;3
34240;PMS7003;20503;50.200;19.508;2022-12-18T10:38:30;8;4;3
34240;PMS7003;20503;50.200;19.508;2022-12-18T10:43:38;5;4;2
34240;PMS7003;20503;50.200;19.508;2022-12-18T10:53:57;11;5;3
34240;PMS7003;20503;50.200;19.508;2022-12-18T10:59:07;10;6;4
34240;PMS7003;20503;50.200;19.508;2022-12-18T11:09:32;4;2;1
34240;PMS7003;20503;50.200;19.508;2022-12-18T11:14:43;5;3;2
34240;PMS7003;20503;50.200;19.508;2022-12-18T11:20:25;3;1;0
34240;PMS7003;20503;50.200;19.508;2022-12-18T11:25:06;3;3;1
34240;PMS7003;20503;50.200;19.508;2022-12-18T11:30:21;6;2;2
34240;PMS7003;20503;50.200;19.508;2022-12-18T11:40:42;15;8;4
34240;PMS7003;20503;50.200;19.508;2022-12-18T11:46:09;4;4;2
34240;PMS7003;20503;50.200;19.508;2022-12-18T11:51:08;4;3;1
34240;PMS7003;20503;50.200;19.508;2022-12-18T12:17:14;5;2;1
34240;PMS7003;20503;50.200;19.508;2022-12-18T12:22:32;8;3;1
34240;PMS7003;20503;50.200;19.508;2022-12-18T12:27:49;1;1;0
34240;PMS7003;20503;50.200;19.508;2022-12-18T12:32:55;18;12;7
34240;PMS7003;20503;50.200;19.508;2022-12-18T12:43:21;9;6;3
34240;PMS7003;20503;50.200;19.508;2022-12-18T12:48:36;9;3;0
34240;PMS7003;20503;50.200;19.508;2022-12-18T12:53:47;7;5;2
34240;PMS7003;20503;50.200;19.508;2022-12-18T13:04:12;6;4;3
34240;PMS7003;20503;50.200;19.508;2022-12-18T13:09:20;21;15;7
34240;PMS7003;20503;50.200;19.508;2022-12-18T13:14:23;28;14;4
34240;PMS7003;20503;50.200;19.508;2022-12-18T13:19:35;14;9;5
34240;PMS7003;20503;50.200;19.508;2022-12-18T13:24:38;11;9;5
34240;PMS7003;20503;50.200;19.508;2022-12-18T13:29:43;11;6;3
34240;PMS7003;20503;50.200;19.508;2022-12-18T13:34:48;10;7;3
34240;PMS7003;20503;50.200;19.508;2022-12-18T13:39:57;39;19;9
34240;PMS7003;20503;50.200;19.508;2022-12-18T13:45:00;17;14;6
34240;PMS7003;20503;50.200;19.508;2022-12-18T13:55:17;20;13;9
34240;PMS7003;20503;50.200;19.508;2022-12-18T14:00:25;11;9;5
34240;PMS7003;20503;50.200;19.508;2022-12-18T14:05:36;10;7;3
34240;PMS7003;20503;50.200;19.508;2022-12-18T14:10:46;7;4;1
34240;PMS7003;20503;50.200;19.508;2022-12-18T14:15:56;21;13;6
34240;PMS7003;20503;50.200;19.508;2022-12-18T14:21:15;109;68;33
34240;PMS7003;20503;50.200;19.508;2022-12-18T14:26:27;26;15;12
34240;PMS7003;20503;50.200;19.508;2022-12-18T14:31:33;31;21;13
34240;PMS7003;20503;50.200;19.508;2022-12-18T14:36:40;31;19;13
34240;PMS7003;20503;50.200;19.508;2022-12-18T14:41:50;29;19;12
34240;PMS7003;20503;50.200;19.508;2022-12-18T14:47:01;27;18;10
34240;PMS7003;20503;50.200;19.508;2022-12-18T14:52:20;36;24;14
34240;PMS7003;20503;50.200;19.508;2022-12-18T14:57:33;29;23;13
34240;PMS7003;20503;50.200;19.508;2022-12-18T15:02:41;23;15;10
34240;PMS7003;20503;50.200;19.508;2022-12-18T15:07:45;27;21;12
34240;PMS7003;20503;50.200;19.508;2022-12-18T15:23:22;23;12;8
34240;PMS7003;20503;50.200;19.508;2022-12-18T15:39:05;16;11;7
34240;PMS7003;20503;50.200;19.508;2022-12-18T15:44:20;17;10;5
34240;PMS7003;20503;50.200;19.508;2022-12-18T15:49:28;11;10;6
34240;PMS7003;20503;50.200;19.508;2022-12-18T15:54:33;23;17;10
34240;PMS7003;20503;50.200;19.508;2022-12-18T15:59:48;22;18;8
34240;PMS7003;20503;50.200;19.508;2022-12-18T16:04:53;26;17;9
34240;PMS7003;20503;50.200;19.508;2022-12-18T16:09:56;27;19;12
34240;PMS7003;20503;50.200;19.508;2022-12-18T16:15:05;29;20;9
34240;PMS7003;20503;50.200;19.508;2022-12-18T16:20:17;15;12;7
34240;PMS7003;20503;50.200;19.508;2022-12-18T16:25:27;20;17;9
34240;PMS7003;20503;50.200;19.508;2022-12-18T16:30:37;12;7;4
34240;PMS7003;20503;50.200;19.508;2022-12-18T16:35:52;18;13;6
34240;PMS7003;20503;50.200;19.508;2022-12-18T16:41:00;25;17;11
34240;PMS7003;20503;50.200;19.508;2022-12-18T16:46:16;31;22;11
34240;PMS7003;20503;50.200;19.508;2022-12-18T16:51:21;25;18;10
34240;PMS7003;20503;50.200;19.508;2022-12-18T16:56:32;13;9;6
34240;PMS7003;20503;50.200;19.508;2022-12-18T17:01:42;12;9;5
34240;PMS7003;20503;50.200;19.508;2022-12-18T17:06:53;7;5;3
34240;PMS7003;20503;50.200;19.508;2022-12-18T17:12:04;9;6;3
34240;PMS7003;20503;50.200;19.508;2022-12-18T17:17:16;11;6;5
34240;PMS7003;20503;50.200;19.508;2022-12-18T17:22:26;5;5;3
34240;PMS7003;20503;50.200;19.508;2022-12-18T17:27:37;10;6;3
34240;PMS7003;20503;50.200;19.508;2022-12-18T17:32:47;8;6;3
34240;PMS7003;20503;50.200;19.508;2022-12-18T17:37:58;14;5;4
34240;PMS7003;20503;50.200;19.508;2022-12-18T17:43:09;11;5;4
34240;PMS7003;20503;50.200;19.508;2022-12-18T17:48:20;8;6;4
34240;PMS7003;20503;50.200;19.508;2022-12-18T17:53:30;9;6;5
34240;PMS7003;20503;50.200;19.508;2022-12-18T17:58:42;7;5;2
34240;PMS7003;20503;50.200;19.508;2022-12-18T18:03:53;8;2;1
34240;PMS7003;20503;50.200;19.508;2022-12-18T18:09:03;24;17;11
34240;PMS7003;20503;50.200;19.508;2022-12-18T18:14:15;28;21;14
34240;PMS7003;20503;50.200;19.508;2022-12-18T18:19:24;25;14;9
34240;PMS7003;20503;50.200;19.508;2022-12-18T18:24:37;39;26;18
34240;PMS7003;20503;50.200;19.508;2022-12-18T18:29:46;16;13;7
34240;PMS7003;20503;50.200;19.508;2022-12-18T18:34:57;20;13;8
34240;PMS7003;20503;50.200;19.508;2022-12-18T18:40:08;17;12;6
34240;PMS7003;20503;50.200;19.508;2022-12-18T18:45:19;10;8;6
34240;PMS7003;20503;50.200;19.508;2022-12-18T18:50:30;13;11;7
34240;PMS7003;20503;50.200;19.508;2022-12-18T18:55:40;6;4;3
34240;PMS7003;20503;50.200;19.508;2022-12-18T19:00:58;17;11;6
34240;PMS7003;20503;50.200;19.508;2022-12-18T19:06:02;10;6;4
34240;PMS7003;20503;50.200;19.508;2022-12-18T19:11:13;8;6;3
34240;PMS7003;20503;50.200;19.508;2022-12-18T19:16:28;7;5;3
34240;PMS7003;20503;50.200;19.508;2022-12-18T19:21:35;3;0;0
34240;PMS7003;20503;50.200;19.508;2022-12-18T19:26:45;8;6;4
34240;PMS7003;20503;50.200;19.508;2022-12-18T19:31:56;14;7;5
34240;PMS7003;20503;50.200;19.508;2022-12-18T19:37:07;13;10;6
34240;PMS7003;20503;50.200;19.508;2022-12-18T19:42:17;5;3;2
34240;PMS7003;20503;50.200;19.508;2022-12-18T19:47:28;11;6;3
34240;PMS7003;20503;50.200;19.508;2022-12-18T19:52:39;11;7;5
34240;PMS7003;20503;50.200;19.508;2022-12-18T19:57:50;4;4;2
34240;PMS7003;20503;50.200;19.508;2022-12-18T20:03:01;10;4;2
34240;PMS7003;20503;50.200;19.508;2022-12-18T20:08:12;12;5;3
34240;PMS7003;20503;50.200;19.508;2022-12-18T20:13:23;6;3;2
34240;PMS7003;20503;50.200;19.508;2022-12-18T20:18:33;8;3;2
34240;PMS7003;20503;50.200;19.508;2022-12-18T20:23:45;8;5;3
34240;PMS7003;20503;50.200;19.508;2022-12-18T20:28:55;6;4;2
34240;PMS7003;20503;50.200;19.508;2022-12-18T20:34:06;6;3;2
34240;PMS7003;20503;50.200;19.508;2022-12-18T20:39:17;5;3;2
34240;PMS7003;20503;50.200;19.508;2022-12-18T20:44:32;11;7;3
34240;PMS7003;20503;50.200;19.508;2022-12-18T20:49:39;6;6;4
34240;PMS7003;20503;50.200;19.508;2022-12-18T20:54:49;4;3;2
34240;PMS7003;20503;50.200;19.508;2022-12-18T21:00:00;8;5;3
34240;PMS7003;20503;50.200;19.508;2022-12-18T21:05:10;13;5;4
34240;PMS7003;20503;50.200;19.508;2022-12-18T21:10:21;9;3;2
34240;PMS7003;20503;50.200;19.508;2022-12-18T21:15:32;8;6;3
34240;PMS7003;20503;50.200;19.508;2022-12-18T21:20:43;8;5;4
34240;PMS7003;20503;50.200;19.508;2022-12-18T21:25:56;13;5;4
34240;PMS7003;20503;50.200;19.508;2022-12-18T21:31:07;5;4;3
34240;PMS7003;20503;50.200;19.508;2022-12-18T21:36:15;10;5;3
34240;PMS7003;20503;50.200;19.508;2022-12-18T21:41:27;7;3;2
34240;PMS7003;20503;50.200;19.508;2022-12-18T21:46:42;11;6;4
34240;PMS7003;20503;50.200;19.508;2022-12-18T21:51:50;7;3;2
34240;PMS7003;20503;50.200;19.508;2022-12-18T21:56:59;10;1;0
34240;PMS7003;20503;50.200;19.508;2022-12-18T22:02:13;7;3;2
34240;PMS7003;20503;50.200;19.508;2022-12-18T22:07:21;2;1;0
34240;PMS7003;20503;50.200;19.508;2022-12-18T22:12:31;6;5;2
34240;PMS7003;20503;50.200;19.508;2022-12-18T22:17:42;5;3;2
34240;PMS7003;20503;50.200;19.508;2022-12-18T22:22:52;6;5;4
34240;PMS7003;20503;50.200;19.508;2022-12-18T22:28:03;8;4;3
34240;PMS7003;20503;50.200;19.508;2022-12-18T22:33:18;6;6;3
34240;PMS7003;20503;50.200;19.508;2022-12-18T22:38:25;9;6;4
34240;PMS7003;20503;50.200;19.508;2022-12-18T22:43:36;7;5;3
34240;PMS7003;20503;50.200;19.508;2022-12-18T22:48:47;6;4;3
34240;PMS7003;20503;50.200;19.508;2022-12-18T22:53:58;16;3;2
34240;PMS7003;20503;50.200;19.508;2022-12-18T22:59:18;10;5;3
34240;PMS7003;20503;50.200;19.508;2022-12-18T23:04:19;6;2;2
34240;PMS7003;20503;50.200;19.508;2022-12-18T23:09:30;9;5;4
34240;PMS7003;20503;50.200;19.508;2022-12-18T23:14:41;4;2;2
34240;PMS7003;20503;50.200;19.508;2022-12-18T23:19:51;4;2;1
34240;PMS7003;20503;50.200;19.508;2022-12-18T23:25:03;4;2;0
34240;PMS7003;20503;50.200;19.508;2022-12-18T23:30:13;6;2;1
34240;PMS7003;20503;50.200;19.508;2022-12-18T23:35:24;6;5;2
34240;PMS7003;20503;50.200;19.508;2022-12-18T23:40:35;8;4;1
34240;PMS7003;20503;50.200;19.508;2022-12-18T23:45:46;6;4;2
34240;PMS7003;20503;50.200;19.508;2022-12-18T23:50:56;3;1;1
34240;PMS7003;20503;50.200;19.508;2022-12-18T23:56:07;8;3;2
